createdAt,value
2023-01-23T00:06:57.073Z,0.60
2023-01-23T00:17:04.362Z,0.66
2023-01-23T00:37:18.289Z,0.79
2023-01-23T00:47:25.517Z,0.79
2023-01-23T00:57:32.714Z,0.66
2023-01-23T01:07:39.895Z,0.56
2023-01-23T01:17:47.068Z,0.51
2023-01-23T01:27:56.183Z,0.54
2023-01-23T01:38:03.542Z,0.61
2023-01-23T01:48:11.147Z,0.66
2023-01-23T01:58:22.097Z,0.69
2023-01-23T02:08:34.544Z,0.72
2023-01-23T02:18:45.781Z,0.62
2023-01-23T02:28:55.512Z,0.51
2023-01-23T02:39:02.718Z,0.45
2023-01-23T02:49:10.476Z,0.47
2023-01-23T02:59:35.209Z,0.52
2023-01-23T03:09:43.481Z,0.57
2023-01-23T03:19:50.949Z,0.57
2023-01-23T03:30:16.003Z,0.59
2023-01-23T03:40:39.787Z,0.52
2023-01-23T03:50:46.812Z,0.59
2023-01-23T04:00:53.779Z,0.58
2023-01-23T04:11:05.209Z,0.61
2023-01-23T04:21:12.393Z,0.57
2023-01-23T04:31:19.935Z,0.48
2023-01-23T04:41:30.124Z,0.50
2023-01-23T04:51:37.918Z,0.47
2023-01-23T05:01:45.873Z,0.51
2023-01-23T05:11:52.970Z,0.53
2023-01-23T05:22:00.265Z,0.57
2023-01-23T05:32:07.852Z,0.56
2023-01-23T05:42:14.951Z,0.45
2023-01-23T06:02:28.732Z,0.37
2023-01-23T06:12:36.610Z,0.39
2023-01-23T06:22:43.143Z,0.42
2023-01-23T06:32:50.275Z,0.43
2023-01-23T06:42:57.188Z,0.47
2023-01-23T06:53:05.658Z,0.50
2023-01-23T07:03:12.299Z,0.52
2023-01-23T07:13:19.538Z,0.61
2023-01-23T07:23:26.877Z,0.70
2023-01-23T07:33:34.538Z,0.74
2023-01-23T07:43:40.629Z,0.85
2023-01-23T07:53:48.137Z,0.92
2023-01-23T08:03:55.858Z,0.91
2023-01-23T08:14:02.970Z,0.85
2023-01-23T08:24:10.195Z,0.88
2023-01-23T08:34:17.739Z,0.98
2023-01-23T08:44:24.230Z,0.98
2023-01-23T08:54:31.769Z,1.03
2023-01-23T09:04:39.127Z,1.10
2023-01-23T09:14:45.136Z,1.20
2023-01-23T09:24:52.320Z,1.15
2023-01-23T09:34:59.810Z,1.08
2023-01-23T09:45:08.360Z,1.11
2023-01-23T09:55:20.634Z,1.22
2023-01-23T10:05:32.026Z,1.24
2023-01-23T10:15:39.028Z,1.27
2023-01-23T10:25:46.511Z,1.22
2023-01-23T10:35:57.718Z,1.31
2023-01-23T10:46:06.396Z,1.35
2023-01-23T10:56:18.911Z,1.35
2023-01-23T11:06:28.634Z,1.30
2023-01-23T11:16:36.873Z,1.23
2023-01-23T11:26:45.449Z,1.19
2023-01-23T11:36:55.881Z,1.24
2023-01-23T11:47:04.077Z,1.27
2023-01-23T11:57:10.978Z,1.32
2023-01-23T12:07:21.178Z,1.36
2023-01-23T12:17:28.435Z,1.38
2023-01-23T12:27:34.195Z,1.32
2023-01-23T12:37:54.491Z,1.38
2023-01-23T12:48:01.058Z,1.52
2023-01-23T12:58:13.874Z,1.45
2023-01-23T13:08:19.983Z,1.26
2023-01-23T13:18:28.181Z,1.29
2023-01-23T13:28:44.691Z,1.35
2023-01-23T13:39:01.623Z,1.39
2023-01-23T14:20:40.307Z,1.19
2023-01-23T14:30:58.266Z,1.21
2023-01-23T14:41:06.380Z,1.20
2023-01-23T14:51:19.884Z,1.21
2023-01-23T15:01:26.319Z,1.19
2023-01-23T15:11:34.002Z,1.15
2023-01-23T15:21:38.994Z,1.08
2023-01-23T15:31:47.089Z,1.06
2023-01-23T15:41:56.374Z,1.04
2023-01-23T15:52:16.396Z,1.00
2023-01-23T16:02:30.960Z,0.93
2023-01-23T16:12:38.952Z,0.89
2023-01-23T16:22:47.473Z,0.86
2023-01-23T16:32:56.254Z,0.84
2023-01-23T16:43:04.422Z,0.81
2023-01-23T16:53:13.945Z,0.80
2023-01-23T17:03:20.203Z,0.82
2023-01-23T17:13:28.148Z,0.84
2023-01-23T17:23:34.774Z,0.85
2023-01-23T17:33:42.132Z,0.87
2023-01-23T17:43:48.574Z,0.87
2023-01-23T17:53:55.824Z,0.88
2023-01-23T18:04:03.169Z,0.89
2023-01-23T18:14:17.206Z,0.89
2023-01-23T18:24:28.511Z,0.88
2023-01-23T18:34:33.835Z,0.90
2023-01-23T18:44:41.309Z,0.88
2023-01-23T18:54:54.565Z,0.90
2023-01-23T19:04:59.087Z,0.88
2023-01-23T19:15:05.633Z,0.89
2023-01-23T19:25:12.992Z,0.89
2023-01-23T19:35:18.800Z,0.88
2023-01-23T19:45:25.146Z,0.89
2023-01-23T19:55:31.623Z,0.88
2023-01-23T20:05:37.008Z,0.86
2023-01-23T20:15:42.501Z,0.87
2023-01-23T20:25:57.248Z,0.89
2023-01-23T20:36:02.946Z,0.90
2023-01-23T20:46:06.809Z,0.90
2023-01-23T20:56:11.645Z,0.92
2023-01-23T21:06:17.701Z,0.93
2023-01-23T21:16:23.650Z,0.94
2023-01-23T21:26:30.617Z,0.92
2023-01-23T21:36:36.421Z,0.92
2023-01-23T21:46:42.541Z,0.87
2023-01-23T21:56:48.128Z,0.86
2023-01-23T22:06:55.572Z,0.87
2023-01-23T22:17:01.272Z,0.89
2023-01-23T22:27:06.196Z,0.89
2023-01-23T22:37:11.818Z,0.89
2023-01-23T22:47:17.333Z,0.89
2023-01-23T22:57:23.139Z,0.92
2023-01-23T23:07:29.182Z,0.91
2023-01-23T23:17:34.735Z,0.89
2023-01-23T23:27:40.434Z,0.89
2023-01-23T23:37:46.269Z,0.89
2023-01-23T23:47:51.714Z,0.91
2023-01-23T23:57:57.278Z,0.91
